Aviation Digital Data Service (ADDS)

Output produced by METARs form (1158 UTC 28 November 2014)
found at http://www.aviationweather.gov/adds/metars/
 
KCXY 281156Z 25005KT 10SM BKN080 M01/M07 A3024 RMK AO2 SLP244 T10111067 10006 21017 53028
KCXY 281056Z AUTO 25005KT 10SM CLR M01/M07 A3020 RMK AO2 SLP230 T10061067
KCXY 280956Z AUTO 27010G19KT 10SM CLR 00/M06 A3017 RMK AO2 SLP222 T00001061
KCXY 280856Z AUTO 27012KT 10SM CLR 01/M06 A3015 RMK AO2 SLP215 T00061056 51004
KCXY 280756Z AUTO 27006KT 10SM FEW039 00/M06 A3015 RMK AO2 SLP214 T00001056
KCXY 280656Z AUTO 29008KT 10SM BKN040 01/M06 A3015 RMK AO2 SLP215 T00061056
KCXY 280556Z AUTO 29008KT 10SM FEW037 01/M05 A3014 RMK AO2 SLP210 T00061050 10017 21006 51005
KCXY 280456Z AUTO 28009G18KT 10SM BKN090 01/M04 A3014 RMK AO2 SLP210 T00111044 400331006
KCXY 280356Z AUTO 25006KT 10SM FEW065 OVC090 01/M03 A3013 RMK AO2 SLP206 T00111028
KCXY 280256Z AUTO 27005KT 9SM SCT055 OVC085 01/M02 A3012 RMK AO2 SLP205 T00111017 51008
KCXY 280156Z AUTO 25005KT 8SM FEW065 OVC085 01/M01 A3012 RMK AO2 SLP203 T00061011
KCXY 280056Z AUTO 24003KT 7SM BKN085 00/M01 A3011 RMK AO2 SLP201 T00001011
KCXY 272356Z AUTO 00000KT 10SM OVC070 01/M01 A3010 RMK AO2 SLP196 60000 T00061011 10033 20006 51014
KCXY 272256Z AUTO 28004KT 10SM OVC070 02/M01 A3009 RMK AO2 RAB02E29SNE02 SLP193 P0000 T00171011
KCXY 272156Z AUTO 33007KT 7SM -SN SCT034 BKN042 OVC055 03/M01 A3008 RMK AO2 RAB45E48SNB48 SLP190 P0000 T00281011
KCXY 272056Z AUTO 28003KT 10SM FEW039 FEW048 OVC070 03/M02 A3006 RMK AO2 SLP183 T00281022 51006
KCXY 271956Z 29003KT 10SM FEW040 BKN070 03/M03 A3005 RMK AO2 SLP182 T00281028
KCXY 271856Z 29005KT 10SM FEW027 BKN033 OVC041 03/M03 A3004 RMK AO2 SLP178 T00281028
KCXY 271756Z 28006KT 10SM BKN034 OVC055 02/M02 A3004 RMK AO2 SLP176 T00221022 10028 20006 58004
KCXY 271656Z 31008KT 10SM OVC060 03/M03 A3005 RMK AO2 SLP178 T00281028
KCXY 271556Z 31005KT 10SM FEW023 BKN033 OVC060 03/M02 A3005 RMK AO2 SLP181 T00281022
KCXY 271456Z 29005KT 10SM OVC060 02/M02 A3005 RMK AO2 SLP180 T00221017 51012
KCXY 271356Z 25003KT 10SM OVC060 01/M02 A3005 RMK AO2 SLP179 T00111017
KCXY 271256Z 25006KT 10SM OVC065 01/M02 A3004 RMK AO2 SLP176 T00061017
KCXY 271156Z 26004KT 10SM BKN075 01/M02 A3002 RMK AO2 SLP169 70053 T00061022 10017 20006 53009
KCXY 271056Z AUTO 29005KT 10SM OVC070 01/M02 A3000 RMK AO2 SLP164 T00111022
KCXY 270956Z AUTO 26004KT 10SM BKN070 01/M02 A2999 RMK AO2 SLP159 T00111017
KCXY 270856Z AUTO 30003KT 10SM OVC070 01/M02 A2999 RMK AO2 SLP160 T00111017 50005
KCXY 270756Z AUTO 30008KT 10SM OVC070 02/M02 A3000 RMK AO2 SLP163 T00171017
KCXY 270656Z AUTO 30008KT 10SM BKN050 OVC070 02/M02 A2998 RMK AO2 SLP158 T00171017
KCXY 270556Z AUTO 30008KT 10SM OVC070 02/M01 A2998 RMK AO2 SLP155 60005 T00171011 10022 20017 53002
KCXY 270456Z AUTO 30006KT 10SM FEW024 BKN070 OVC080 02/M02 A2997 RMK AO2 SLP154 T00171017 400670006
KCXY 270454Z AUTO 30005KT 10SM FEW024 BKN065 OVC090 02/M02 A2997 RMK AO2
KCXY 270356Z AUTO 31008KT 10SM OVC019 02/M02 A2997 RMK AO2 SLP153 T00171017
KCXY 270256Z AUTO 32007KT 10SM OVC020 02/M01 A2995 RMK AO2 SLP146 60005 T00221011 55001
KCXY 270240Z AUTO 31007KT 10SM BKN020 OVC070 02/M01 A2995 RMK AO2 T00171011
KCXY 270156Z 33007KT 10SM FEW019 OVC100 02/M01 A2994 RMK AO2 SLP141 T00221011
KCXY 270056Z AUTO 33009KT 10SM OVC018 02/M01 A2995 RMK AO2 UPE2357RAB2357E2358 SLP147 P0005 T00171006